Time;durP1;ratioP1;P1;durP2;ratioP2;P2;SDS_P1;SDS_P2;PMS_P1;PMS_P2;Temp;Humidity;BMP_temperature;BMP_pressure;BME280_temperature;BME280_humidity;BME280_pressure;Samples;Min_cycle;Max_cycle;Signal;HPM_P1;HPM_P2
2021/08/17 00:02:03;;;;;;;10.27;2.90;;;13.30;99.90;;;;;;4425271;32;20154;-61
2021/08/17 00:04:29;;;;;;;9.67;2.90;;;13.30;99.90;;;;;;4423277;32;20206;-62
2021/08/17 00:06:57;;;;;;;7.50;2.13;;;13.20;99.90;;;;;;4423605;32;20206;-63
2021/08/17 00:09:25;;;;;;;11.10;3.53;;;13.20;99.90;;;;;;4423890;32;20151;-64
2021/08/17 00:11:52;;;;;;;10.00;2.57;;;13.20;99.90;;;;;;4427202;32;20171;-62
2021/08/17 00:14:19;;;;;;;12.83;2.83;;;13.10;99.90;;;;;;4429344;32;20163;-62
2021/08/17 00:16:46;;;;;;;11.33;2.83;;;13.10;99.90;;;;;;4423372;32;20159;-62
2021/08/17 00:19:12;;;;;;;11.93;2.97;;;13.00;99.90;;;;;;4423427;32;20155;-63
2021/08/17 00:21:39;;;;;;;8.53;2.53;;;13.00;99.90;;;;;;4423189;32;20559;-62
2021/08/17 00:24:06;;;;;;;11.13;2.60;;;12.90;99.90;;;;;;4423323;32;20207;-62
2021/08/17 00:26:34;;;;;;;9.73;2.60;;;12.90;99.90;;;;;;4422788;32;20194;-62
2021/08/17 00:29:01;;;;;;;10.60;2.67;;;12.90;99.90;;;;;;4423507;32;20195;-63
2021/08/17 00:31:28;;;;;;;11.47;3.00;;;12.80;99.90;;;;;;4423773;32;20523;-63
2021/08/17 00:33:55;;;;;;;7.07;2.67;;;12.80;99.90;;;;;;4423062;32;20151;-62
2021/08/17 00:36:22;;;;;;;12.13;2.77;;;12.70;99.90;;;;;;4423255;32;20170;-62
2021/08/17 00:38:49;;;;;;;14.47;3.33;;;12.70;99.90;;;;;;4424586;32;20164;-62
2021/08/17 00:41:16;;;;;;;9.93;3.13;;;12.70;99.90;;;;;;4424761;32;20148;-62
2021/08/17 00:43:44;;;;;;;12.83;3.27;;;12.70;99.90;;;;;;4422946;32;20169;-63
2021/08/17 00:46:11;;;;;;;8.60;2.40;;;12.60;99.90;;;;;;4435200;32;20218;-63
2021/08/17 00:48:38;;;;;;;6.37;2.33;;;12.60;99.90;;;;;;4422831;32;20166;-62
2021/08/17 00:51:07;;;;;;;8.10;2.67;;;12.60;99.90;;;;;;4422904;32;20187;-63
2021/08/17 00:53:34;;;;;;;13.70;3.10;;;12.50;99.90;;;;;;4422999;32;20224;-62
2021/08/17 00:56:01;;;;;;;7.53;2.67;;;12.50;99.90;;;;;;4424087;32;20175;-63
2021/08/17 00:58:28;;;;;;;11.73;3.00;;;12.40;99.90;;;;;;4424183;32;20159;-63
2021/08/17 01:00:57;;;;;;;8.30;2.40;;;12.40;99.90;;;;;;4422688;32;20202;-62
2021/08/17 01:03:24;;;;;;;9.50;3.10;;;12.40;99.90;;;;;;4423216;32;20152;-63
2021/08/17 01:05:51;;;;;;;9.43;3.47;;;12.40;99.90;;;;;;4422638;32;20215;-62
2021/08/17 01:08:18;;;;;;;10.73;2.87;;;12.40;99.90;;;;;;4422444;32;20563;-62
2021/08/17 01:10:45;;;;;;;8.87;2.73;;;12.40;99.90;;;;;;4423707;32;20151;-62
2021/08/17 01:13:12;;;;;;;12.97;2.77;;;12.30;99.90;;;;;;4423898;32;20537;-62
2021/08/17 01:15:38;;;;;;;13.30;3.10;;;12.30;99.90;;;;;;4422490;32;20170;-63
2021/08/17 01:18:07;;;;;;;8.00;3.23;;;12.30;99.90;;;;;;4422790;32;20147;-61
2021/08/17 01:20:37;;;;;;;6.87;2.73;;;12.20;99.90;;;;;;4423272;32;20488;-62
2021/08/17 01:23:04;;;;;;;9.17;2.97;;;12.20;99.90;;;;;;4422366;32;20206;-62
2021/08/17 01:25:35;;;;;;;8.63;2.40;;;12.20;99.90;;;;;;4423867;32;20629;-62
2021/08/17 01:28:02;;;;;;;8.03;2.40;;;12.20;99.90;;;;;;4422442;32;20167;-62
2021/08/17 01:30:32;;;;;;;8.83;2.37;;;12.20;99.90;;;;;;4422604;32;20172;-62
2021/08/17 01:32:59;;;;;;;10.77;3.10;;;12.20;99.90;;;;;;4422620;32;20170;-62
2021/08/17 01:35:30;;;;;;;23.13;3.50;;;12.20;99.90;;;;;;4422244;32;20167;-64
2021/08/17 01:37:57;;;;;;;10.60;3.63;;;12.20;99.90;;;;;;4422072;32;20204;-63
2021/08/17 01:40:24;;;;;;;10.70;2.90;;;12.20;99.90;;;;;;4423808;32;20147;-62
2021/08/17 01:42:52;;;;;;;12.20;3.00;;;12.20;99.90;;;;;;4423139;32;20531;-62
2021/08/17 01:45:20;;;;;;;10.93;3.20;;;12.20;99.90;;;;;;4432358;32;20174;-61
2021/08/17 01:47:48;;;;;;;10.93;3.93;;;12.10;99.90;;;;;;4437417;32;20203;-62
2021/08/17 01:50:17;;;;;;;8.53;3.10;;;12.20;99.90;;;;;;4436280;32;20151;-63
2021/08/17 01:52:44;;;;;;;7.17;3.10;;;12.10;99.90;;;;;;4430235;32;20213;-63
2021/08/17 01:55:13;;;;;;;15.40;3.67;;;12.10;99.90;;;;;;4421875;32;20546;-63
2021/08/17 01:57:40;;;;;;;11.43;3.20;;;12.10;99.90;;;;;;4423761;32;20174;-64
2021/08/17 02:00:10;;;;;;;10.67;3.13;;;12.10;99.90;;;;;;4421739;32;20195;-63
2021/08/17 02:02:37;;;;;;;10.60;3.07;;;12.20;99.90;;;;;;4423465;32;20211;-62
2021/08/17 02:05:05;;;;;;;6.00;2.70;;;12.20;99.90;;;;;;4422201;32;20535;-62
2021/08/17 02:07:32;;;;;;;6.60;2.57;;;12.20;99.90;;;;;;4422554;32;20523;-63
2021/08/17 02:09:59;;;;;;;7.10;2.80;;;12.20;99.90;;;;;;4423403;32;20164;-62
2021/08/17 02:12:26;;;;;;;6.83;2.93;;;12.20;99.90;;;;;;4422515;32;20151;-62
2021/08/17 02:14:53;;;;;;;10.07;3.17;;;12.20;99.90;;;;;;4421703;32;20171;-63
2021/08/17 02:17:21;;;;;;;9.07;3.27;;;12.20;99.90;;;;;;4423295;32;20530;-63
2021/08/17 02:19:48;;;;;;;13.53;3.10;;;12.20;99.90;;;;;;4421738;32;20147;-64
2021/08/17 02:22:14;;;;;;;8.23;3.50;;;12.20;99.90;;;;;;4422815;32;20194;-63
2021/08/17 02:24:41;;;;;;;5.80;2.87;;;12.20;99.90;;;;;;4422390;32;20179;-63
2021/08/17 02:27:09;;;;;;;13.83;3.37;;;12.30;99.90;;;;;;4422710;32;20575;-63
2021/08/17 02:29:35;;;;;;;10.87;3.73;;;12.40;99.90;;;;;;4421422;32;20214;-63
2021/08/17 02:32:02;;;;;;;13.47;3.70;;;12.40;99.90;;;;;;4421392;32;20171;-63
2021/08/17 02:34:30;;;;;;;8.60;2.73;;;12.50;99.90;;;;;;4421308;32;20210;-63
2021/08/17 02:36:57;;;;;;;8.43;3.07;;;12.60;99.90;;;;;;4421454;32;20152;-63
2021/08/17 02:39:24;;;;;;;8.50;2.87;;;12.60;99.90;;;;;;4423253;32;20215;-62
2021/08/17 02:41:51;;;;;;;10.90;3.07;;;12.70;99.90;;;;;;4430369;32;20206;-62
2021/08/17 02:44:21;;;;;;;7.77;2.63;;;12.80;99.90;;;;;;4431723;32;20167;-63
2021/08/17 02:46:48;;;;;;;12.93;3.43;;;12.90;99.90;;;;;;4437690;32;20175;-64
2021/08/17 02:49:15;;;;;;;11.13;3.47;;;13.00;99.90;;;;;;4436430;32;20151;-63
2021/08/17 02:51:43;;;;;;;8.37;2.77;;;13.00;99.90;;;;;;4437699;32;20205;-62
2021/08/17 02:54:09;;;;;;;7.57;2.57;;;13.00;99.90;;;;;;4436557;32;20592;-63
2021/08/17 02:56:36;;;;;;;6.90;2.80;;;13.10;99.90;;;;;;4436715;32;20169;-63
2021/08/17 02:59:03;;;;;;;6.37;2.37;;;13.10;99.90;;;;;;4436474;32;20177;-62
2021/08/17 03:01:30;;;;;;;8.63;4.03;;;13.10;99.90;;;;;;4436269;32;20182;-63
2021/08/17 03:03:57;;;;;;;9.53;2.97;;;13.10;99.90;;;;;;4436280;32;20209;-63
2021/08/17 03:06:24;;;;;;;6.43;2.77;;;13.20;99.90;;;;;;4435555;32;20603;-64
2021/08/17 03:08:52;;;;;;;6.53;2.80;;;13.20;99.90;;;;;;4438127;32;20167;-63
2021/08/17 03:11:20;;;;;;;10.13;3.33;;;13.20;99.90;;;;;;4436326;32;20147;-61
2021/08/17 03:13:47;;;;;;;8.23;2.97;;;13.10;99.90;;;;;;4436180;32;20163;-61
2021/08/17 03:16:16;;;;;;;6.30;3.43;;;13.10;99.90;;;;;;4436222;32;20609;-64
2021/08/17 03:18:43;;;;;;;6.57;2.40;;;13.10;99.90;;;;;;4437746;32;20207;-60
2021/08/17 03:21:09;;;;;;;10.07;2.73;;;13.00;99.90;;;;;;4436127;32;20170;-60
2021/08/17 03:23:36;;;;;;;15.47;3.10;;;13.00;99.90;;;;;;4437762;32;20205;-61
2021/08/17 03:26:04;;;;;;;9.03;3.03;;;13.00;99.90;;;;;;4437864;32;20214;-62
2021/08/17 03:28:31;;;;;;;8.67;2.70;;;13.00;99.90;;;;;;4436073;32;20151;-62
2021/08/17 03:30:59;;;;;;;8.27;2.80;;;13.00;99.90;;;;;;4436411;32;20185;-61
2021/08/17 03:33:26;;;;;;;6.03;3.23;;;13.10;99.90;;;;;;4436974;32;20187;-62
2021/08/17 03:35:53;;;;;;;6.23;2.67;;;13.10;99.90;;;;;;4436801;32;20170;-61
2021/08/17 03:38:20;;;;;;;10.83;3.67;;;13.00;99.90;;;;;;4436394;32;20172;-61
2021/08/17 03:40:47;;;;;;;12.27;3.20;;;13.10;99.90;;;;;;4436253;32;20171;-62
2021/08/17 03:43:15;;;;;;;7.27;2.80;;;13.10;99.90;;;;;;4435969;32;20193;-62
2021/08/17 03:45:42;;;;;;;9.30;2.80;;;13.10;99.90;;;;;;4436016;32;20186;-63
2021/08/17 03:48:09;;;;;;;5.50;3.17;;;13.00;99.90;;;;;;4435896;32;20169;-64
2021/08/17 03:50:36;;;;;;;8.83;3.37;;;13.00;99.90;;;;;;4437056;32;20206;-62
2021/08/17 03:53:04;;;;;;;7.07;3.53;;;13.00;99.90;;;;;;4435923;32;20154;-63
2021/08/17 03:55:31;;;;;;;10.50;2.87;;;12.90;99.90;;;;;;4437245;32;20520;-63
2021/08/17 03:57:58;;;;;;;12.57;3.47;;;12.90;99.90;;;;;;4437802;32;20274;-62
2021/08/17 04:00:28;;;;;;;6.70;3.47;;;12.90;99.90;;;;;;4436061;32;20147;-63
2021/08/17 04:02:58;;;;;;;10.10;3.03;;;12.80;99.90;;;;;;4436086;32;20266;-62
2021/08/17 04:05:25;;;;;;;10.47;3.20;;;12.80;99.90;;;;;;4436263;32;20227;-62
2021/08/17 04:07:54;;;;;;;7.17;3.00;;;12.80;99.90;;;;;;4436821;32;20217;-62
2021/08/17 04:10:21;;;;;;;5.83;2.57;;;12.80;99.90;;;;;;4437588;32;20169;-62
2021/08/17 04:12:50;;;;;;;7.67;3.10;;;12.70;99.90;;;;;;4436224;32;20237;-63
2021/08/17 04:15:17;;;;;;;6.47;3.10;;;12.60;99.90;;;;;;4435832;32;20147;-62
2021/08/17 04:17:45;;;;;;;11.63;3.33;;;12.70;99.90;;;;;;4435922;32;20189;-62
2021/08/17 04:20:13;;;;;;;12.60;4.63;;;12.70;99.90;;;;;;4435869;32;20235;-62
2021/08/17 04:22:40;;;;;;;5.20;3.60;;;12.70;99.90;;;;;;4435694;32;20189;-62
2021/08/17 04:25:08;;;;;;;5.43;3.00;;;12.70;99.90;;;;;;4436710;32;20183;-62
2021/08/17 04:27:36;;;;;;;10.27;3.60;;;12.80;99.90;;;;;;4435837;32;20185;-62
2021/08/17 04:30:05;;;;;;;7.70;3.60;;;12.90;99.90;;;;;;4437432;32;20186;-62
2021/08/17 04:32:33;;;;;;;7.97;3.30;;;12.90;99.90;;;;;;4432568;32;20202;-62
2021/08/17 04:35:01;;;;;;;9.00;3.50;;;12.90;99.90;;;;;;4427079;32;20170;-62
2021/08/17 04:37:28;;;;;;;8.40;3.50;;;13.00;99.90;;;;;;4420692;32;20553;-63
2021/08/17 04:39:54;;;;;;;11.60;4.40;;;13.00;99.90;;;;;;4420362;32;20179;-62
2021/08/17 04:42:23;;;;;;;10.87;3.40;;;12.90;99.90;;;;;;4422127;32;20164;-62
2021/08/17 04:44:50;;;;;;;7.07;3.60;;;13.00;99.90;;;;;;4430574;32;20179;-62
2021/08/17 04:47:17;;;;;;;8.77;3.87;;;13.00;99.90;;;;;;4436084;32;20515;-63
2021/08/17 04:49:44;;;;;;;7.37;3.97;;;13.00;99.90;;;;;;4439245;32;20178;-63
2021/08/17 04:52:12;;;;;;;7.33;4.03;;;13.00;99.90;;;;;;4433658;32;20175;-63
2021/08/17 04:54:39;;;;;;;6.70;3.20;;;13.10;99.90;;;;;;4431593;32;20209;-63
2021/08/17 04:57:06;;;;;;;11.33;3.70;;;13.20;99.90;;;;;;4430851;32;20178;-62
2021/08/17 04:59:33;;;;;;;8.13;3.87;;;13.20;99.90;;;;;;4422873;32;20262;-62
2021/08/17 05:02:00;;;;;;;9.87;3.90;;;13.20;99.90;;;;;;4422743;32;20159;-62
2021/08/17 05:04:27;;;;;;;10.70;4.20;;;13.30;99.90;;;;;;4425546;32;20234;-62
2021/08/17 05:06:54;;;;;;;9.60;3.87;;;13.30;99.90;;;;;;4430188;32;20161;-63
2021/08/17 05:09:22;;;;;;;11.53;5.00;;;13.40;99.90;;;;;;4427878;32;20202;-62
2021/08/17 05:11:49;;;;;;;8.53;4.33;;;13.40;99.90;;;;;;4437748;32;20200;-62
2021/08/17 05:14:16;;;;;;;12.97;5.03;;;13.60;99.90;;;;;;4425141;32;20630;-63
2021/08/17 05:16:43;;;;;;;10.87;4.70;;;13.70;99.90;;;;;;4422888;32;20186;-62
2021/08/17 05:19:09;;;;;;;8.03;4.23;;;13.90;99.90;;;;;;4426276;32;20194;-62
2021/08/17 05:21:36;;;;;;;12.83;5.03;;;14.00;99.90;;;;;;4429650;32;20224;-62
2021/08/17 05:24:04;;;;;;;8.73;4.20;;;14.20;99.90;;;;;;4427961;32;20173;-62
2021/08/17 05:26:32;;;;;;;17.57;5.60;;;14.50;99.90;;;;;;4429887;32;20174;-63
2021/08/17 05:28:59;;;;;;;11.13;4.97;;;14.70;99.90;;;;;;4431769;32;20243;-63
2021/08/17 05:31:25;;;;;;;11.10;5.20;;;14.90;99.90;;;;;;4425830;32;20163;-60
2021/08/17 05:33:52;;;;;;;16.13;5.63;;;15.00;99.90;;;;;;4422882;32;20254;-61
2021/08/17 05:36:19;;;;;;;11.27;5.93;;;15.30;99.90;;;;;;4424118;32;20210;-61
2021/08/17 05:38:46;;;;;;;9.73;4.97;;;15.40;99.90;;;;;;4425426;32;20222;-62
2021/08/17 05:41:13;;;;;;;10.50;5.23;;;15.30;99.90;;;;;;4428734;32;20195;-61
2021/08/17 05:43:41;;;;;;;10.60;6.03;;;15.30;99.90;;;;;;4422183;32;20219;-62
2021/08/17 05:46:08;;;;;;;9.70;5.90;;;15.40;99.90;;;;;;4422266;32;20186;-63
2021/08/17 05:48:35;;;;;;;13.77;6.80;;;15.40;99.90;;;;;;4422752;32;20231;-63
2021/08/17 05:51:01;;;;;;;13.40;7.77;;;15.50;99.90;;;;;;4421880;32;20163;-59
2021/08/17 05:53:39;;;;;;;10.47;6.47;;;15.50;99.90;;;;;;4418884;32;20239;-60
2021/08/17 05:56:17;;;;;;;11.07;6.70;;;15.40;99.90;;;;;;4414859;32;20254;-61
2021/08/17 05:58:53;;;;;;;18.27;7.13;;;15.40;99.90;;;;;;4415340;32;20251;-60
2021/08/17 06:01:22;;;;;;;14.67;7.23;;;15.50;99.90;;;;;;4411451;32;20225;-60
2021/08/17 06:03:49;;;;;;;10.97;6.03;;;15.60;99.90;;;;;;4415470;32;20239;-60
2021/08/17 06:06:16;;;;;;;12.53;6.77;;;15.60;99.90;;;;;;4409267;32;20239;-60
2021/08/17 06:08:42;;;;;;;9.57;6.67;;;15.70;99.90;;;;;;4418793;32;20195;-60
2021/08/17 06:11:09;;;;;;;13.57;7.60;;;15.90;99.90;;;;;;4412646;32;20254;-60
2021/08/17 06:13:36;;;;;;;17.97;7.77;;;16.10;99.90;;;;;;4426318;32;20232;-61
2021/08/17 06:16:05;;;;;;;15.73;7.43;;;16.10;99.90;;;;;;4429642;32;20629;-61
2021/08/17 06:18:32;;;;;;;18.17;7.97;;;16.00;99.90;;;;;;4438490;32;20142;-61
2021/08/17 06:20:59;;;;;;;16.17;8.20;;;16.00;99.90;;;;;;4436540;32;20225;-61
2021/08/17 06:23:26;;;;;;;15.17;7.53;;;15.90;99.90;;;;;;4437119;32;20163;-61
2021/08/17 06:25:53;;;;;;;15.63;8.20;;;15.90;99.90;;;;;;4437458;32;20486;-61
2021/08/17 06:28:19;;;;;;;18.17;8.73;;;15.80;99.90;;;;;;4433621;32;20177;-61
2021/08/17 06:30:48;;;;;;;14.27;7.50;;;15.80;99.90;;;;;;4431704;32;20152;-61
2021/08/17 06:33:16;;;;;;;14.30;7.73;;;15.90;99.90;;;;;;4423963;32;20156;-61
2021/08/17 06:35:43;;;;;;;14.73;7.50;;;16.10;99.90;;;;;;4429017;32;20674;-61
2021/08/17 06:38:10;;;;;;;18.63;9.23;;;16.20;99.90;;;;;;4429430;32;20155;-61
2021/08/17 06:40:37;;;;;;;17.30;8.83;;;16.20;99.90;;;;;;4426851;32;20174;-61
2021/08/17 06:43:04;;;;;;;14.97;8.10;;;16.30;99.90;;;;;;4426061;32;20237;-61
2021/08/17 06:45:31;;;;;;;19.97;9.57;;;16.40;99.90;;;;;;4431356;32;20606;-61
2021/08/17 06:47:58;;;;;;;17.57;8.63;;;16.50;99.90;;;;;;4425167;32;20155;-61
2021/08/17 06:50:27;;;;;;;15.73;8.90;;;16.50;99.90;;;;;;4421229;32;20167;-61
2021/08/17 06:52:55;;;;;;;16.30;8.97;;;16.60;99.90;;;;;;4425263;32;20660;-60
2021/08/17 06:55:22;;;;;;;17.20;9.40;;;16.60;99.90;;;;;;4423485;32;20523;-60
2021/08/17 06:57:49;;;;;;;25.37;10.27;;;16.70;99.90;;;;;;4432416;32;20162;-60
2021/08/17 07:00:16;;;;;;;17.87;10.67;;;16.70;99.90;;;;;;4430102;32;20182;-60
2021/08/17 07:02:43;;;;;;;18.53;10.60;;;16.80;99.90;;;;;;4427579;32;20195;-61
2021/08/17 07:05:11;;;;;;;22.13;10.50;;;17.10;99.90;;;;;;4429078;32;20175;-60
2021/08/17 07:07:40;;;;;;;28.47;11.23;;;17.10;99.90;;;;;;4426375;32;20163;-60
2021/08/17 07:10:08;;;;;;;22.07;10.87;;;17.30;99.90;;;;;;4424265;32;20175;-60
2021/08/17 07:12:41;;;;;;;24.60;11.07;;;17.40;99.90;;;;;;4420980;32;20170;-60
2021/08/17 07:15:08;;;;;;;23.50;11.10;;;17.30;99.90;;;;;;4420034;32;20249;-61
2021/08/17 07:17:36;;;;;;;18.90;10.37;;;17.20;99.90;;;;;;4425539;32;20155;-61
2021/08/17 07:20:04;;;;;;;25.27;10.50;;;17.20;99.90;;;;;;4430173;32;20194;-61
2021/08/17 07:22:31;;;;;;;19.43;10.57;;;17.40;99.90;;;;;;4429317;32;20479;-60
2021/08/17 07:24:59;;;;;;;21.13;10.47;;;17.60;99.90;;;;;;4427859;32;20178;-61
2021/08/17 07:27:28;;;;;;;21.73;10.13;;;18.00;99.90;;;;;;4428231;32;20185;-61
2021/08/17 07:29:55;;;;;;;20.80;10.10;;;18.20;99.90;;;;;;4426746;32;20226;-60
2021/08/17 07:32:22;;;;;;;19.30;9.33;;;18.40;99.90;;;;;;4429477;32;20700;-60
2021/08/17 07:34:51;;;;;;;23.10;11.70;;;18.50;99.90;;;;;;4428397;32;20179;-60
2021/08/17 07:37:18;;;;;;;24.37;11.00;;;18.40;99.90;;;;;;4430309;32;20155;-60
2021/08/17 07:39:44;;;;;;;17.10;9.77;;;18.10;99.90;;;;;;4429200;32;20249;-61
2021/08/17 07:42:13;;;;;;;23.73;10.50;;;17.90;99.90;;;;;;4426773;32;20151;-61
2021/08/17 07:44:40;;;;;;;25.57;11.03;;;17.60;99.90;;;;;;4429649;32;20167;-61
2021/08/17 07:47:07;;;;;;;21.57;10.13;;;17.50;99.90;;;;;;4427325;32;20159;-61
2021/08/17 07:49:34;;;;;;;17.53;9.33;;;17.50;99.90;;;;;;4422255;32;20510;-62
2021/08/17 07:52:01;;;;;;;23.73;10.43;;;17.60;99.90;;;;;;4423025;32;20202;-63
2021/08/17 07:54:31;;;;;;;19.80;10.33;;;17.80;99.90;;;;;;4430406;32;20160;-61
2021/08/17 07:57:01;;;;;;;25.73;11.10;;;18.10;99.90;;;;;;4428884;32;20234;-62
2021/08/17 07:59:29;;;;;;;18.20;10.70;;;18.20;99.90;;;;;;4428421;32;20171;-62
2021/08/17 08:01:56;;;;;;;25.53;9.90;;;18.10;99.90;;;;;;4428014;32;20175;-60
2021/08/17 08:04:23;;;;;;;18.93;9.27;;;18.10;99.90;;;;;;4428023;32;20228;-60
2021/08/17 08:06:50;;;;;;;19.53;9.23;;;18.00;99.90;;;;;;4424250;32;20190;-60
2021/08/17 08:09:17;;;;;;;25.47;9.27;;;17.90;99.90;;;;;;4422298;32;20203;-61
2021/08/17 08:11:44;;;;;;;20.97;9.87;;;17.70;99.90;;;;;;4420514;32;20167;-61
2021/08/17 08:14:11;;;;;;;21.13;9.10;;;17.60;99.90;;;;;;4428149;32;20159;-60
2021/08/17 08:16:39;;;;;;;18.00;8.80;;;17.40;99.90;;;;;;4431060;32;20240;-63
2021/08/17 08:19:07;;;;;;;19.63;9.20;;;17.50;99.90;;;;;;4428041;32;20155;-61
2021/08/17 08:21:34;;;;;;;20.03;9.00;;;17.70;99.90;;;;;;4428555;32;20210;-61
2021/08/17 08:24:03;;;;;;;20.73;9.37;;;17.80;99.90;;;;;;4429833;32;20197;-61
2021/08/17 08:26:30;;;;;;;16.90;9.13;;;17.90;99.90;;;;;;4428778;32;20155;-61
2021/08/17 08:28:57;;;;;;;16.70;8.87;;;18.10;99.90;;;;;;4430972;32;20160;-61
2021/08/17 08:31:24;;;;;;;15.37;9.50;;;18.10;99.90;;;;;;4426677;32;20202;-61
2021/08/17 08:33:52;;;;;;;19.60;8.00;;;17.90;99.90;;;;;;4427607;32;20206;-61
2021/08/17 08:36:19;;;;;;;18.77;7.47;;;17.80;99.90;;;;;;4428327;32;20181;-62
2021/08/17 08:38:46;;;;;;;16.83;9.00;;;17.80;99.90;;;;;;4426952;32;20159;-60
2021/08/17 08:41:16;;;;;;;14.67;7.33;;;18.00;99.90;;;;;;4429274;32;20178;-61
2021/08/17 08:43:43;;;;;;;15.57;7.63;;;18.40;99.90;;;;;;4433084;32;20167;-62
2021/08/17 08:46:15;;;;;;;18.20;8.00;;;18.70;99.90;;;;;;4429749;32;20194;-61
2021/08/17 08:48:45;;;;;;;14.13;7.07;;;19.10;99.90;;;;;;4431214;32;20323;-61
2021/08/17 08:51:14;;;;;;;11.47;6.60;;;19.20;99.90;;;;;;4428722;32;20318;-60
2021/08/17 08:53:41;;;;;;;12.00;7.10;;;19.20;99.90;;;;;;4422361;32;20244;-60
2021/08/17 08:56:08;;;;;;;13.57;6.80;;;18.90;99.90;;;;;;4428183;32;20171;-60
2021/08/17 08:58:37;;;;;;;13.53;7.20;;;18.40;99.90;;;;;;4429829;32;20178;-61
2021/08/17 09:01:04;;;;;;;12.67;6.87;;;17.80;99.90;;;;;;4423631;32;20221;-61
2021/08/17 09:03:44;;;;;;;13.63;6.70;;;17.30;99.90;;;;;;4428842;32;20205;-62
2021/08/17 09:06:21;;;;;;;14.67;6.60;;;17.10;99.90;;;;;;4425419;32;20163;-62
2021/08/17 09:08:49;;;;;;;12.30;6.97;;;17.10;99.90;;;;;;4422317;32;20178;-62
2021/08/17 09:11:18;;;;;;;14.77;6.90;;;17.00;99.90;;;;;;4428631;32;20586;-61
2021/08/17 09:13:45;;;;;;;9.83;5.60;;;17.00;99.90;;;;;;4422572;32;20171;-61
2021/08/17 09:16:27;;;;;;;14.17;6.70;;;17.10;99.90;;;;;;4427709;32;20166;-61
2021/08/17 09:18:54;;;;;;;10.63;5.93;;;17.40;99.90;;;;;;4436362;32;20190;-66
2021/08/17 09:21:38;;;;;;;9.33;5.10;;;17.80;99.90;;;;;;4428920;32;20623;-61
2021/08/17 09:24:15;;;;;;;9.73;5.20;;;18.10;99.90;;;;;;4422938;32;20163;-62
2021/08/17 09:26:47;;;;;;;10.90;5.17;;;18.40;99.90;;;;;;4438717;32;20165;-60
2021/08/17 09:29:23;;;;;;;11.33;5.60;;;18.40;99.90;;;;;;4430548;32;20163;-60
2021/08/17 09:31:51;;;;;;;12.90;5.83;;;18.10;99.90;;;;;;4425711;32;20159;-60
2021/08/17 09:34:18;;;;;;;9.27;4.10;;;18.00;99.90;;;;;;4425013;32;20175;-60
2021/08/17 09:36:46;;;;;;;8.20;4.60;;;17.90;99.90;;;;;;4430255;32;20222;-60
2021/08/17 09:39:28;;;;;;;9.73;5.00;;;17.80;99.90;;;;;;4428808;32;20194;-62
2021/08/17 09:42:19;;;;;;;9.47;4.60;;;17.60;99.90;;;;;;4428506;32;20260;-61
2021/08/17 09:44:48;;;;;;;10.67;4.90;;;17.60;99.90;;;;;;4430173;32;20665;-62
2021/08/17 09:47:15;;;;;;;13.67;4.77;;;17.60;99.90;;;;;;4433043;32;20174;-60
2021/08/17 09:49:42;;;;;;;8.10;4.50;;;17.90;99.90;;;;;;4439184;32;20155;-60
2021/08/17 09:52:14;;;;;;;12.00;4.73;;;18.10;99.90;;;;;;4438816;32;20162;-60
2021/08/17 09:54:46;;;;;;;15.20;4.77;;;18.00;99.90;;;;;;4435135;32;20209;-60
2021/08/17 09:57:13;;;;;;;8.93;4.10;;;17.80;99.90;;;;;;4423679;32;20237;-60
2021/08/17 09:59:42;;;;;;;8.93;4.23;;;17.70;99.90;;;;;;4416168;32;20226;-60
2021/08/17 10:02:11;;;;;;;10.80;5.17;;;17.60;99.90;;;;;;4416271;32;20202;-60
2021/08/17 10:04:41;;;;;;;10.10;5.47;;;17.50;99.90;;;;;;4419471;32;20349;-62
2021/08/17 10:07:10;;;;;;;7.67;4.80;;;17.50;99.90;;;;;;4421885;32;20150;-61
2021/08/17 10:09:38;;;;;;;9.27;4.03;;;17.50;99.90;;;;;;4424289;32;20175;-61
2021/08/17 10:12:07;;;;;;;7.43;4.10;;;17.60;99.90;;;;;;4420587;32;20186;-60
2021/08/17 10:14:34;;;;;;;11.20;4.47;;;17.60;99.90;;;;;;4421582;32;20215;-61
2021/08/17 10:17:01;;;;;;;8.73;4.53;;;17.70;99.90;;;;;;4420003;32;20507;-62
2021/08/17 10:19:32;;;;;;;9.27;4.37;;;17.80;99.90;;;;;;4422342;32;20610;-60
2021/08/17 10:22:00;;;;;;;10.97;4.43;;;18.00;99.90;;;;;;4422072;32;20294;-60
2021/08/17 10:24:35;;;;;;;10.23;4.43;;;18.10;99.90;;;;;;4420577;32;20593;-61
2021/08/17 10:27:23;;;;;;;10.73;4.57;;;18.10;99.90;;;;;;4424890;32;20154;-61
2021/08/17 10:30:02;;;;;;;8.57;5.10;;;18.10;99.90;;;;;;4424443;32;20235;-60
2021/08/17 10:32:43;;;;;;;9.50;4.63;;;18.00;99.90;;;;;;4423383;32;20182;-60
2021/08/17 10:35:46;;;;;;;7.33;4.37;;;18.10;99.90;;;;;;4424160;32;20143;-60
2021/08/17 10:38:43;;;;;;;6.70;3.83;;;18.00;99.90;;;;;;4427322;32;20194;-60
2021/08/17 10:41:12;;;;;;;7.50;4.20;;;17.80;99.90;;;;;;4422366;32;20160;-61
2021/08/17 10:44:14;;;;;;;9.17;4.27;;;17.70;99.90;;;;;;4427243;32;20159;-62
2021/08/17 10:46:53;;;;;;;7.57;3.83;;;17.70;99.90;;;;;;4420345;32;20179;-59
2021/08/17 10:49:32;;;;;;;6.90;3.77;;;17.60;99.90;;;;;;4421849;32;20158;-61
2021/08/17 10:52:00;;;;;;;8.03;4.50;;;17.40;99.90;;;;;;4424031;32;20179;-61
2021/08/17 10:54:27;;;;;;;10.37;4.20;;;17.30;99.90;;;;;;4428809;32;20163;-60
2021/08/17 10:56:56;;;;;;;7.93;4.27;;;17.10;99.90;;;;;;4420814;32;20227;-61
2021/08/17 10:59:39;;;;;;;7.57;4.90;;;17.00;99.90;;;;;;4420641;32;20496;-61
2021/08/17 11:02:07;;;;;;;8.23;4.97;;;16.50;99.90;;;;;;4420757;32;20627;-61
2021/08/17 11:04:39;;;;;;;9.83;4.27;;;16.00;99.90;;;;;;4362568;32;1990197;-60
2021/08/17 11:07:31;;;;;;;11.00;5.33;;;15.80;99.90;;;;;;4426755;32;20214;-61
2021/08/17 11:10:01;;;;;;;10.20;5.30;;;15.60;99.90;;;;;;4426726;32;20505;-61
2021/08/17 11:12:35;;;;;;;8.73;4.90;;;15.40;99.90;;;;;;4427146;32;20211;-61
2021/08/17 11:15:05;;;;;;;12.50;5.87;;;15.30;99.90;;;;;;4427381;32;20214;-61
2021/08/17 11:17:32;;;;;;;11.70;5.60;;;15.40;99.90;;;;;;4430968;32;20201;-61
2021/08/17 11:20:00;;;;;;;10.23;6.00;;;15.40;99.90;;;;;;4424577;32;20273;-62
2021/08/17 11:22:28;;;;;;;8.60;5.40;;;15.40;99.90;;;;;;4429435;32;20194;-61
2021/08/17 11:24:57;;;;;;;7.03;4.17;;;15.40;99.90;;;;;;4429376;32;20526;-61
2021/08/17 11:27:25;;;;;;;7.80;5.30;;;15.30;99.90;;;;;;4421738;32;20152;-62
2021/08/17 11:29:56;;;;;;;9.80;5.47;;;15.30;99.90;;;;;;4429316;32;20193;-63
2021/08/17 11:32:28;;;;;;;8.07;4.83;;;15.20;99.90;;;;;;4421852;32;20599;-62
2021/08/17 11:34:55;;;;;;;7.93;5.03;;;15.20;99.90;;;;;;4421400;32;20195;-61
2021/08/17 11:37:22;;;;;;;7.37;4.83;;;15.30;99.90;;;;;;4426700;32;20204;-63
2021/08/17 11:39:54;;;;;;;6.77;5.40;;;15.30;99.90;;;;;;4426824;32;20173;-61
2021/08/17 11:42:22;;;;;;;9.53;5.20;;;15.30;99.90;;;;;;4423503;32;20510;-61
2021/08/17 11:44:51;;;;;;;9.07;6.03;;;15.20;99.90;;;;;;4422552;32;20286;-61
2021/08/17 11:47:21;;;;;;;8.83;5.47;;;15.20;99.90;;;;;;4427238;32;20178;-62
2021/08/17 11:49:49;;;;;;;9.30;6.43;;;15.20;99.90;;;;;;4424475;32;20249;-63
2021/08/17 11:52:19;;;;;;;10.23;5.80;;;15.20;99.90;;;;;;4431903;32;20171;-62
2021/08/17 11:54:56;;;;;;;10.87;5.77;;;15.20;99.90;;;;;;4423400;32;20175;-61
2021/08/17 11:57:29;;;;;;;9.33;6.10;;;15.30;99.90;;;;;;4434070;32;20214;-63
2021/08/17 11:59:56;;;;;;;12.63;6.37;;;15.30;99.90;;;;;;4426801;32;20204;-61
2021/08/17 12:02:30;;;;;;;9.47;6.20;;;15.60;99.90;;;;;;4431347;32;20187;-63
2021/08/17 12:04:58;;;;;;;10.30;5.73;;;15.70;99.90;;;;;;4429279;32;20931;-62
2021/08/17 12:07:28;;;;;;;10.17;6.57;;;15.70;99.90;;;;;;4430195;32;20175;-62
2021/08/17 12:09:56;;;;;;;9.17;6.30;;;15.70;99.90;;;;;;4428939;32;20233;-62
2021/08/17 12:12:56;;;;;;;10.07;6.03;;;15.80;99.90;;;;;;4434449;32;20182;-61
2021/08/17 12:15:35;;;;;;;7.33;5.30;;;15.80;99.90;;;;;;4424717;32;20205;-61
2021/08/17 12:18:06;;;;;;;9.43;6.10;;;16.00;99.90;;;;;;4423646;32;20151;-61
2021/08/17 12:20:35;;;;;;;7.83;5.53;;;16.10;99.90;;;;;;4439902;32;20159;-62
2021/08/17 12:23:15;;;;;;;10.10;6.07;;;16.20;99.90;;;;;;4439081;32;20559;-60
2021/08/17 12:25:44;;;;;;;11.43;6.80;;;16.20;99.90;;;;;;4439181;32;20151;-60
2021/08/17 12:28:23;;;;;;;7.67;6.07;;;16.30;99.90;;;;;;4439895;32;20474;-60
2021/08/17 12:31:05;;;;;;;8.43;5.93;;;16.30;99.90;;;;;;4438586;32;20261;-61
2021/08/17 12:33:33;;;;;;;8.80;6.07;;;16.30;99.90;;;;;;4423742;32;20269;-61
2021/08/17 12:36:01;;;;;;;10.10;6.70;;;16.30;99.90;;;;;;4432631;32;20595;-61
2021/08/17 12:38:41;;;;;;;7.77;6.77;;;16.40;99.90;;;;;;4419585;32;20219;-61
2021/08/17 12:41:29;;;;;;;9.17;6.03;;;16.50;99.90;;;;;;4420054;32;20253;-60
2021/08/17 12:43:59;;;;;;;8.83;6.03;;;16.60;99.90;;;;;;4424406;32;20222;-63
2021/08/17 12:46:26;;;;;;;6.93;5.70;;;16.60;99.90;;;;;;4419564;32;20191;-60
2021/08/17 12:49:01;;;;;;;9.07;6.63;;;16.60;99.90;;;;;;4421127;32;20199;-61
2021/08/17 12:51:30;;;;;;;5.60;4.90;;;16.50;99.90;;;;;;4427410;32;20625;-60